Time;durP1;ratioP1;P1;durP2;ratioP2;P2;SDS_P1;SDS_P2;PMS_P1;PMS_P2;Temp;Humidity;BMP_temperature;BMP_pressure;BME280_temperature;BME280_humidity;BME280_pressure;Samples;Min_cycle;Max_cycle;Signal;HPM_P1;HPM_P2
2023/01/12 00:00:41;;;;;;;1.45;1.33;;;9.20;99.90;;;;;;6287819;23;20009;-64
2023/01/12 00:03:20;;;;;;;1.70;1.30;;;9.20;99.90;;;;;;6264023;23;20074;-65
2023/01/12 00:06:06;;;;;;;1.60;1.50;;;9.20;99.90;;;;;;6351174;23;20168;-63
2023/01/12 00:08:41;;;;;;;1.70;1.60;;;9.20;99.90;;;;;;6262480;23;20152;-64
2023/01/12 00:11:16;;;;;;;1.73;1.63;;;9.30;99.90;;;;;;6364253;23;20007;-67
2023/01/12 00:13:48;;;;;;;1.95;1.38;;;9.30;99.90;;;;;;6389116;23;20007;-68
2023/01/12 00:16:34;;;;;;;1.92;1.58;;;9.30;99.90;;;;;;6364256;23;20343;-64
2023/01/12 00:19:18;;;;;;;1.85;1.60;;;9.30;99.90;;;;;;6363610;23;20062;-66
2023/01/12 00:22:04;;;;;;;1.83;1.73;;;9.20;99.90;;;;;;6262511;23;20006;-65
2023/01/12 00:24:40;;;;;;;2.30;1.80;;;9.20;99.90;;;;;;6388879;23;20009;-64
2023/01/12 00:27:18;;;;;;;2.38;1.52;;;9.30;99.90;;;;;;6262210;23;20002;-65
2023/01/12 00:29:49;;;;;;;2.13;1.50;;;9.40;99.90;;;;;;6262984;23;20002;-67
2023/01/12 00:32:24;;;;;;;2.58;2.35;;;9.40;99.90;;;;;;6264252;23;20011;-68
2023/01/12 00:34:55;;;;;;;1.63;1.52;;;9.40;99.90;;;;;;6391087;23;19999;-66
2023/01/12 00:37:26;;;;;;;1.88;1.77;;;9.40;99.90;;;;;;6283064;23;20022;-64
2023/01/12 00:39:58;;;;;;;1.90;1.75;;;9.40;99.90;;;;;;6262125;23;20239;-66
2023/01/12 00:45:23;;;;;;;2.35;1.92;;;9.30;99.90;;;;;;6266313;23;20020;-66
2023/01/12 00:48:02;;;;;;;2.13;1.80;;;9.40;99.90;;;;;;6264975;23;20009;-65
2023/01/12 00:50:36;;;;;;;2.20;2.00;;;9.40;99.90;;;;;;6362611;23;20007;-65
2023/01/12 00:53:14;;;;;;;2.65;1.77;;;9.40;99.90;;;;;;6287067;23;20001;-67
2023/01/12 00:55:48;;;;;;;2.65;2.08;;;9.40;99.90;;;;;;6364243;23;20003;-65
2023/01/12 00:58:19;;;;;;;3.90;2.30;;;9.40;99.90;;;;;;6365318;23;20002;-65
2023/01/12 01:03:42;;;;;;;3.03;2.10;;;9.50;99.90;;;;;;6227767;23;20243;-62
2023/01/12 01:06:13;;;;;;;4.25;2.72;;;9.40;99.90;;;;;;6199063;23;20514;-64
2023/01/12 01:08:49;;;;;;;2.83;2.25;;;9.40;99.90;;;;;;6211911;23;20482;-64
2023/01/12 01:11:24;;;;;;;2.85;2.17;;;9.40;99.90;;;;;;6211614;23;20010;-65
2023/01/12 01:14:03;;;;;;;2.10;1.70;;;9.40;99.90;;;;;;6234293;23;20020;-65
2023/01/12 01:16:39;;;;;;;4.80;2.35;;;9.40;99.90;;;;;;6210953;23;20031;-63
2023/01/12 01:19:12;;;;;;;3.50;1.92;;;9.40;99.90;;;;;;6234726;23;20006;-63
2023/01/12 01:21:45;;;;;;;2.97;2.20;;;9.30;99.90;;;;;;6209128;23;20003;-64
2023/01/12 01:24:19;;;;;;;2.57;1.70;;;9.30;99.90;;;;;;6235135;23;19992;-65
2023/01/12 01:26:53;;;;;;;3.33;2.05;;;9.40;99.90;;;;;;6188316;23;20006;-68
2023/01/12 01:29:24;;;;;;;4.33;1.90;;;9.30;99.90;;;;;;6208300;23;19999;-65
2023/01/12 01:32:01;;;;;;;2.47;2.08;;;9.30;99.90;;;;;;6256827;23;20004;-66
2023/01/12 01:34:32;;;;;;;3.42;1.90;;;9.30;99.90;;;;;;6211089;23;20007;-63
2023/01/12 01:37:05;;;;;;;1.70;1.60;;;9.30;99.90;;;;;;6208813;23;20029;-66
2023/01/12 01:39:37;;;;;;;2.05;1.88;;;9.30;99.90;;;;;;6233703;23;20015;-64
2023/01/12 01:42:26;;;;;;;1.98;1.80;;;9.20;99.90;;;;;;6233126;23;20004;-64
2023/01/12 01:45:05;;;;;;;2.15;1.92;;;9.20;99.90;;;;;;6258311;23;20014;-65
2023/01/12 01:47:46;;;;;;;2.45;2.00;;;9.20;99.90;;;;;;6211107;23;20180;-65
2023/01/12 01:50:22;;;;;;;2.38;1.95;;;9.20;99.90;;;;;;6206958;23;20118;-67
2023/01/12 01:53:02;;;;;;;3.55;2.10;;;9.10;99.90;;;;;;6236310;23;20074;-65
2023/01/12 01:55:47;;;;;;;5.55;2.10;;;9.10;99.90;;;;;;6233880;23;20011;-65
2023/01/12 01:58:30;;;;;;;2.53;2.30;;;9.10;99.90;;;;;;6233131;23;20433;-66
2023/01/12 02:01:07;;;;;;;1.98;1.80;;;9.10;99.90;;;;;;6210871;23;20101;-66
2023/01/12 02:03:39;;;;;;;2.33;1.98;;;9.00;99.90;;;;;;6226544;23;20021;-66
2023/01/12 02:06:14;;;;;;;2.40;2.08;;;9.00;99.90;;;;;;6244312;23;20078;-65
2023/01/12 02:08:48;;;;;;;;;;;9.00;99.90;;;;;;6253165;23;20204;-66
2023/01/12 02:20:54;;;;;;;4.18;2.00;;;9.00;99.90;;;;;;6251451;23;20344;-64
2023/01/12 02:23:43;;;;;;;2.58;1.70;;;9.00;99.90;;;;;;6274575;23;20059;-65
2023/01/12 02:33:37;;;;;;;2.13;1.67;;;9.00;99.90;;;;;;6251452;23;20058;-64
2023/01/12 02:36:18;;;;;;;1.70;1.50;;;9.10;99.90;;;;;;6251411;23;20074;-66
2023/01/12 02:39:31;;;;;;;1.70;1.60;;;9.00;99.90;;;;;;6260463;23;20051;-64
2023/01/12 02:42:41;;;;;;;1.95;1.77;;;9.00;99.90;;;;;;6251262;23;20058;-63
2023/01/12 02:45:46;;;;;;;1.73;1.45;;;9.00;99.90;;;;;;6252449;23;20059;-65
2023/01/12 02:48:36;;;;;;;2.50;1.63;;;9.00;99.90;;;;;;6343914;23;20232;-65
2023/01/12 02:51:43;;;;;;;3.72;1.67;;;9.00;99.90;;;;;;6318817;23;20057;-63
2023/01/12 02:54:20;;;;;;;3.15;1.55;;;9.00;99.90;;;;;;6318953;23;20071;-64
2023/01/12 02:57:02;;;;;;;1.50;1.40;;;9.00;99.90;;;;;;6294421;23;20057;-65
2023/01/12 02:59:41;;;;;;;1.58;1.48;;;9.00;99.90;;;;;;6317177;23;20053;-66
2023/01/12 03:02:26;;;;;;;4.75;2.45;;;8.90;99.90;;;;;;6280155;23;20572;-66
2023/01/12 03:05:00;;;;;;;1.88;1.77;;;8.90;99.90;;;;;;6280219;23;20535;-65
2023/01/12 03:07:41;;;;;;;2.58;2.10;;;8.90;99.90;;;;;;6295043;23;20429;-65
2023/01/12 03:10:31;;;;;;;2.45;2.08;;;8.80;99.90;;;;;;6296420;23;20004;-65
2023/01/12 03:13:17;;;;;;;2.00;1.83;;;8.80;99.90;;;;;;6271960;23;20002;-64
2023/01/12 03:16:00;;;;;;;4.38;1.98;;;8.90;99.90;;;;;;6293400;23;20013;-64
2023/01/12 03:18:38;;;;;;;3.28;2.15;;;8.90;99.90;;;;;;6269633;23;20010;-66
2023/01/12 03:21:32;;;;;;;2.15;1.80;;;8.90;99.90;;;;;;6302564;23;20009;-64
2023/01/12 03:24:11;;;;;;;3.58;2.10;;;8.80;99.90;;;;;;6231625;23;20607;-64
2023/01/12 03:26:49;;;;;;;2.90;2.05;;;8.80;99.90;;;;;;6204637;23;20014;-65
2023/01/12 03:29:39;;;;;;;4.20;2.03;;;8.80;99.90;;;;;;6182776;23;20000;-65
2023/01/12 03:32:16;;;;;;;2.17;1.90;;;8.80;99.90;;;;;;6204624;23;20473;-66
2023/01/12 03:34:48;;;;;;;5.93;2.15;;;8.80;99.90;;;;;;6201310;23;20011;-64
2023/01/12 03:37:25;;;;;;;4.05;2.30;;;8.80;99.90;;;;;;6203545;23;20000;-64
2023/01/12 03:40:06;;;;;;;9.18;3.40;;;8.80;99.90;;;;;;6204647;23;20000;-64
2023/01/12 03:42:57;;;;;;;3.22;2.13;;;8.80;99.90;;;;;;6204689;23;20006;-64
2023/01/12 03:45:57;;;;;;;2.58;2.10;;;8.80;99.90;;;;;;6200117;23;19996;-64
2023/01/12 03:48:40;;;;;;;2.10;1.88;;;8.70;99.90;;;;;;6328456;23;20014;-65
2023/01/12 03:51:29;;;;;;;3.63;2.22;;;8.70;99.90;;;;;;6203521;23;20006;-63
2023/01/12 03:54:05;;;;;;;3.22;1.88;;;8.70;99.90;;;;;;6180532;23;20010;-65
2023/01/12 03:56:39;;;;;;;3.28;2.00;;;8.70;99.90;;;;;;6208824;23;20018;-65
2023/01/12 03:59:13;;;;;;;4.32;2.53;;;8.70;99.90;;;;;;6206119;23;20055;-65
2023/01/12 04:01:48;;;;;;;2.90;2.08;;;8.70;99.90;;;;;;6303153;23;20227;-65
2023/01/12 04:04:23;;;;;;;3.90;2.08;;;8.70;99.90;;;;;;6193359;23;20004;-65
2023/01/12 04:06:55;;;;;;;3.85;2.15;;;8.60;99.90;;;;;;6204385;23;20000;-67
2023/01/12 04:09:29;;;;;;;7.72;2.20;;;8.70;99.90;;;;;;6332005;23;20422;-64
2023/01/12 04:12:09;;;;;;;4.47;2.90;;;8.70;99.90;;;;;;6209399;23;19995;-64
2023/01/12 04:14:47;;;;;;;3.33;1.98;;;8.60;99.90;;;;;;6296884;23;20011;-63
2023/01/12 04:17:23;;;;;;;2.08;1.70;;;8.70;99.90;;;;;;6208543;23;20464;-63
2023/01/12 04:19:54;;;;;;;4.00;2.08;;;8.60;99.90;;;;;;6207203;23;20014;-65
2023/01/12 04:22:43;;;;;;;1.90;1.70;;;8.60;99.90;;;;;;6228364;23;20007;-64
2023/01/12 04:25:19;;;;;;;2.30;2.08;;;8.60;99.90;;;;;;6207038;23;20014;-64
2023/01/12 04:27:55;;;;;;;3.75;1.88;;;8.50;99.90;;;;;;6207714;23;20006;-66
2023/01/12 04:30:33;;;;;;;2.65;1.88;;;8.60;99.90;;;;;;6209037;23;20051;-65
2023/01/12 04:33:06;;;;;;;4.20;1.80;;;8.50;99.90;;;;;;6208292;23;19999;-65
2023/01/12 04:35:38;;;;;;;2.58;1.90;;;8.50;99.90;;;;;;6278147;23;20011;-64
2023/01/12 04:38:09;;;;;;;2.92;1.60;;;8.50;99.90;;;;;;6231289;23;20006;-66
2023/01/12 04:40:40;;;;;;;3.17;1.63;;;8.50;99.90;;;;;;6208018;23;20003;-65
2023/01/12 04:43:11;;;;;;;4.45;2.17;;;8.50;99.90;;;;;;6181470;23;20067;-64
2023/01/12 04:45:43;;;;;;;1.88;1.70;;;8.50;99.90;;;;;;6201959;23;20006;-66
2023/01/12 04:48:18;;;;;;;4.43;1.98;;;8.40;99.90;;;;;;6208534;23;20113;-64
2023/01/12 04:50:51;;;;;;;2.10;1.83;;;8.40;99.90;;;;;;6205483;23;20010;-63
2023/01/12 04:53:28;;;;;;;4.95;1.95;;;8.40;99.90;;;;;;6330449;23;19998;-64
2023/01/12 04:56:06;;;;;;;8.75;1.73;;;8.30;99.90;;;;;;6330775;23;20004;-65
2023/01/12 04:58:37;;;;;;;2.38;1.65;;;8.20;99.90;;;;;;6229565;23;20010;-66
2023/01/12 05:01:19;;;;;;;1.92;1.50;;;8.20;99.90;;;;;;6183847;23;20004;-64
2023/01/12 05:03:54;;;;;;;3.17;1.40;;;8.20;99.90;;;;;;6237975;23;20007;-64
2023/01/12 05:06:26;;;;;;;4.30;2.00;;;8.20;99.90;;;;;;6316097;23;20008;-65
2023/01/12 05:11:52;;;;;;;2.30;1.23;;;8.10;99.90;;;;;;6205968;23;20012;-63
2023/01/12 05:14:25;;;;;;;6.55;1.70;;;8.10;99.90;;;;;;6206663;23;20471;-64
2023/01/12 05:16:58;;;;;;;5.15;1.80;;;8.10;99.90;;;;;;6230027;23;20010;-64
2023/01/12 05:19:29;;;;;;;1.83;1.60;;;8.00;99.90;;;;;;6204644;23;19996;-65
2023/01/12 05:22:02;;;;;;;3.10;1.33;;;8.10;99.90;;;;;;6204290;23;20215;-63
2023/01/12 05:24:38;;;;;;;1.42;1.33;;;8.10;99.90;;;;;;6298104;23;20475;-63
2023/01/12 05:27:09;;;;;;;2.97;1.60;;;8.10;99.90;;;;;;6278766;23;20014;-64
2023/01/12 05:29:42;;;;;;;1.88;1.40;;;8.00;99.90;;;;;;6205582;23;20333;-66
2023/01/12 05:32:13;;;;;;;3.17;1.20;;;8.00;99.90;;;;;;6204168;23;20583;-65
2023/01/12 05:34:47;;;;;;;1.95;1.60;;;8.00;99.90;;;;;;6201437;23;20430;-63
2023/01/12 05:37:21;;;;;;;2.70;1.80;;;8.00;99.90;;;;;;6180310;23;20224;-66
2023/01/12 05:39:54;;;;;;;3.80;1.80;;;7.90;99.90;;;;;;6204765;23;20003;-65
2023/01/12 05:45:22;;;;;;;3.28;2.03;;;7.90;99.90;;;;;;6214992;23;20300;-65
2023/01/12 05:47:59;;;;;;;2.60;1.35;;;7.90;99.90;;;;;;6205724;23;20004;-62
2023/01/12 05:50:32;;;;;;;2.45;1.75;;;7.80;99.90;;;;;;6204170;23;20487;-65
2023/01/12 05:53:03;;;;;;;1.90;1.45;;;7.80;99.90;;;;;;6203665;23;20004;-67
2023/01/12 05:55:38;;;;;;;2.83;1.50;;;7.80;99.90;;;;;;6302560;23;20012;-66
2023/01/12 05:58:14;;;;;;;2.20;1.35;;;7.80;99.90;;;;;;6328666;23;20010;-63
2023/01/12 06:00:50;;;;;;;4.45;1.63;;;7.70;99.90;;;;;;6205933;23;20063;-65
2023/01/12 06:03:22;;;;;;;2.63;1.60;;;7.70;99.90;;;;;;6204110;23;20008;-63
2023/01/12 06:05:58;;;;;;;2.40;1.67;;;7.70;99.90;;;;;;6194865;23;20017;-63
2023/01/12 06:08:34;;;;;;;1.90;1.30;;;7.70;99.90;;;;;;6180822;23;20006;-63
2023/01/12 06:13:55;;;;;;;2.72;1.10;;;7.60;99.90;;;;;;6182956;23;20006;-63
2023/01/12 06:13:59;;;;;;;1.10;1.00;;;7.60;99.90;;;;;;6204431;23;20004;-64
2023/01/12 06:16:32;;;;;;;3.05;1.50;;;7.50;99.90;;;;;;6178273;23;20008;-66
2023/01/12 06:19:03;;;;;;;3.10;1.80;;;7.50;99.90;;;;;;6302323;23;20491;-64
2023/01/12 06:21:39;;;;;;;2.20;1.30;;;7.50;99.90;;;;;;6224091;23;20000;-64
2023/01/12 06:24:12;;;;;;;1.73;1.60;;;7.40;99.90;;;;;;6302087;23;20007;-65
2023/01/12 06:26:52;;;;;;;2.63;1.63;;;7.40;99.90;;;;;;6201031;23;20004;-61
2023/01/12 06:29:26;;;;;;;3.03;1.88;;;7.40;99.90;;;;;;6337543;23;20002;-63
2023/01/12 06:31:57;;;;;;;2.25;1.60;;;7.40;99.90;;;;;;6204894;23;20214;-62
2023/01/12 06:34:34;;;;;;;1.70;1.50;;;7.40;99.90;;;;;;6205504;23;20018;-63
2023/01/12 06:37:10;;;;;;;3.60;1.60;;;7.40;99.90;;;;;;6203582;23;20460;-65
2023/01/12 06:39:41;;;;;;;2.03;1.58;;;7.30;99.90;;;;;;6204764;23;20349;-66
2023/01/12 06:42:30;;;;;;;3.33;2.20;;;7.30;99.90;;;;;;6205820;23;20004;-64
2023/01/12 06:45:04;;;;;;;6.63;1.98;;;7.30;99.90;;;;;;6201751;23;20008;-66
2023/01/12 06:47:49;;;;;;;3.08;1.88;;;7.30;99.90;;;;;;6215655;23;20359;-63
2023/01/12 06:50:22;;;;;;;;;;;7.30;99.90;;;;;;6204231;23;20055;-63
2023/01/12 06:52:58;;;;;;;2.50;1.63;;;7.30;99.90;;;;;;6201423;23;20244;-63
2023/01/12 06:55:30;;;;;;;1.73;1.23;;;7.20;99.90;;;;;;6200982;23;20011;-65
2023/01/12 06:58:06;;;;;;;1.60;1.50;;;7.20;99.90;;;;;;6204410;23;20003;-63
2023/01/12 07:00:41;;;;;;;4.00;1.33;;;7.20;99.90;;;;;;6237076;23;19991;-65
2023/01/12 07:03:19;;;;;;;4.40;1.75;;;7.20;99.90;;;;;;6198706;23;20312;-63
2023/01/12 07:05:53;;;;;;;1.98;1.58;;;7.10;99.90;;;;;;6192514;23;20332;-64
2023/01/12 07:08:29;;;;;;;1.08;0.90;;;7.10;99.90;;;;;;6181017;23;20030;-64
2023/01/12 07:11:11;;;;;;;3.72;1.60;;;7.10;99.90;;;;;;6180286;23;20206;-64
2023/01/12 07:13:49;;;;;;;1.67;0.95;;;7.00;99.90;;;;;;6206010;23;20047;-64
2023/01/12 07:16:20;;;;;;;4.32;1.20;;;7.00;99.90;;;;;;6303767;23;20000;-64
2023/01/12 07:18:51;;;;;;;3.10;1.10;;;7.10;99.90;;;;;;6204006;23;20594;-64
2023/01/12 07:21:25;;;;;;;1.38;1.10;;;7.10;99.90;;;;;;6324029;23;20169;-65
2023/01/12 07:23:58;;;;;;;3.00;1.00;;;7.00;99.90;;;;;;6206422;23;20063;-63
2023/01/12 07:26:32;;;;;;;0.90;0.90;;;7.10;99.90;;;;;;6181480;23;20014;-63
2023/01/12 07:29:04;;;;;;;1.83;1.10;;;7.00;99.90;;;;;;6326596;23;20029;-64
2023/01/12 07:31:40;;;;;;;1.65;1.00;;;7.10;99.90;;;;;;6215156;23;20043;-64
2023/01/12 07:34:11;;;;;;;1.85;0.80;;;7.20;99.90;;;;;;6204640;23;20003;-64
2023/01/12 07:36:48;;;;;;;5.18;0.82;;;7.20;99.90;;;;;;6224442;23;20030;-62
2023/01/12 07:39:21;;;;;;;1.42;1.33;;;7.20;99.90;;;;;;6202305;23;20014;-63
2023/01/12 07:44:44;;;;;;;4.40;1.23;;;7.50;99.90;;;;;;6206307;23;20051;-62
2023/01/12 07:47:15;;;;;;;1.23;1.00;;;7.60;99.90;;;;;;6180242;23;20018;-63
2023/01/12 07:49:47;;;;;;;2.45;1.15;;;7.70;99.90;;;;;;6203293;23;20002;-65
2023/01/12 07:52:18;;;;;;;2.75;1.08;;;7.70;99.90;;;;;;6176319;23;20408;-64
2023/01/12 07:54:54;;;;;;;2.47;1.10;;;7.80;99.90;;;;;;6204743;23;20337;-62
2023/01/12 07:57:25;;;;;;;1.13;0.75;;;7.90;99.90;;;;;;6205273;23;20340;-64
2023/01/12 07:59:58;;;;;;;3.97;1.17;;;8.00;99.90;;;;;;6203637;23;20342;-62
2023/01/12 08:02:29;;;;;;;1.92;0.98;;;8.10;99.90;;;;;;6326642;23;20012;-64
2023/01/12 08:05:01;;;;;;;1.95;0.95;;;8.10;99.90;;;;;;6349016;23;20019;-65
2023/01/12 08:07:32;;;;;;;3.40;1.20;;;8.20;99.90;;;;;;6349823;23;20000;-65
2023/01/12 08:10:04;;;;;;;3.95;1.27;;;8.30;99.90;;;;;;6356964;23;20155;-65
2023/01/12 08:12:35;;;;;;;1.27;0.77;;;8.30;99.90;;;;;;6357719;23;20008;-65
2023/01/12 08:15:10;;;;;;;4.35;1.02;;;8.40;99.90;;;;;;6356627;23;20005;-63
2023/01/12 08:17:55;;;;;;;3.40;1.15;;;8.50;99.90;;;;;;6355374;23;19990;-64
2023/01/12 08:20:33;;;;;;;2.90;0.98;;;8.50;99.90;;;;;;6352864;23;20060;-62
2023/01/12 08:23:16;;;;;;;2.65;1.30;;;8.60;99.90;;;;;;6358434;23;20048;-64
2023/01/12 08:25:55;;;;;;;1.80;1.02;;;8.70;99.90;;;;;;6356293;23;19993;-63
2023/01/12 08:28:38;;;;;;;1.92;0.90;;;8.80;99.90;;;;;;6355263;23;20228;-63
2023/01/12 08:31:12;;;;;;;1.85;0.90;;;8.90;99.90;;;;;;6357510;23;20273;-64
2023/01/12 08:33:49;;;;;;;4.85;1.27;;;8.90;99.90;;;;;;6354216;23;20342;-65
2023/01/12 08:36:27;;;;;;;2.95;0.80;;;8.90;99.90;;;;;;6327582;23;20012;-62
2023/01/12 08:39:03;;;;;;;3.25;1.20;;;8.90;99.90;;;;;;6358358;23;20172;-63
2023/01/12 08:41:41;;;;;;;3.95;1.30;;;9.00;99.90;;;;;;6356462;23;19997;-65
2023/01/12 08:44:19;;;;;;;3.33;0.88;;;9.10;99.90;;;;;;6356143;23;19997;-65
2023/01/12 08:46:52;;;;;;;2.13;1.13;;;9.10;99.90;;;;;;6334008;23;19997;-66
2023/01/12 08:49:28;;;;;;;2.28;0.95;;;9.20;99.90;;;;;;6356464;23;20052;-64
2023/01/12 08:51:59;;;;;;;5.68;1.80;;;9.20;99.90;;;;;;6352882;23;20061;-64
2023/01/12 08:54:30;;;;;;;0.95;0.85;;;9.30;99.90;;;;;;6357652;23;19994;-65
2023/01/12 08:57:03;;;;;;;3.15;1.13;;;9.30;99.90;;;;;;6358700;23;20005;-65
2023/01/12 08:59:38;;;;;;;2.30;0.95;;;9.40;99.90;;;;;;6360021;23;20049;-64
2023/01/12 09:02:15;;;;;;;2.50;2.05;;;9.50;99.90;;;;;;6358542;23;20008;-63
2023/01/12 09:04:47;;;;;;;4.82;1.30;;;9.50;99.90;;;;;;6353027;23;20013;-63
2023/01/12 09:07:19;;;;;;;2.28;0.98;;;9.50;99.90;;;;;;6329065;23;20024;-63
2023/01/12 09:09:50;;;;;;;2.70;0.90;;;9.60;99.90;;;;;;6383841;23;20002;-64
2023/01/12 09:12:27;;;;;;;1.88;1.23;;;9.60;99.90;;;;;;6333669;23;20002;-62
2023/01/12 09:14:58;;;;;;;3.78;1.02;;;9.70;99.90;;;;;;6356001;23;20020;-63
2023/01/12 09:17:35;;;;;;;;;;;9.70;99.90;;;;;;6357705;23;20111;-65
2023/01/12 09:20:09;;;;;;;3.92;1.38;;;9.80;99.90;;;;;;6356752;23;19948;-64
2023/01/12 09:22:45;;;;;;;2.88;1.40;;;9.80;99.90;;;;;;6385180;23;20012;-63
2023/01/12 09:25:18;;;;;;;0.77;0.77;;;9.90;99.90;;;;;;6360937;23;20053;-64
2023/01/12 09:27:51;;;;;;;3.25;1.40;;;9.90;99.90;;;;;;6371000;23;20263;-62
2023/01/12 09:30:26;;;;;;;2.33;1.23;;;10.00;99.90;;;;;;6359377;23;20013;-63
2023/01/12 09:33:03;;;;;;;2.38;1.33;;;10.10;99.90;;;;;;6356808;23;19998;-62
2023/01/12 09:35:37;;;;;;;2.72;1.35;;;10.10;99.90;;;;;;6354209;23;19998;-64
2023/01/12 09:38:09;;;;;;;2.65;1.42;;;10.20;99.90;;;;;;6360842;23;20008;-64
2023/01/12 09:40:43;;;;;;;1.63;0.88;;;10.30;99.90;;;;;;6357935;23;19998;-64
2023/01/12 09:49:09;;;;;;;3.15;1.40;;;10.40;99.90;;;;;;6357994;23;20312;-65
2023/01/12 09:52:08;;;;;;;2.38;1.20;;;10.60;99.90;;;;;;6348923;23;19997;-63
2023/01/12 09:55:04;;;;;;;7.40;1.13;;;10.70;99.90;;;;;;6360007;23;20004;-64
2023/01/12 09:57:58;;;;;;;2.05;1.15;;;10.80;99.90;;;;;;6355273;23;20005;-63
2023/01/12 10:00:32;;;;;;;1.33;1.00;;;11.00;99.90;;;;;;6330079;23;20001;-62
2023/01/12 10:03:11;;;;;;;2.50;1.30;;;11.10;99.90;;;;;;6380930;23;20016;-63
2023/01/12 10:05:47;;;;;;;3.72;1.45;;;11.30;99.90;;;;;;6362955;23;20207;-63
2023/01/12 10:08:34;;;;;;;4.00;1.08;;;11.50;99.90;;;;;;6357341;23;20008;-66
2023/01/12 10:11:16;;;;;;;2.10;1.65;;;11.60;99.90;;;;;;6360173;23;20364;-63
2023/01/12 10:14:11;;;;;;;2.25;1.02;;;11.80;99.90;;;;;;6360185;23;20081;-64
2023/01/12 10:17:14;;;;;;;1.23;1.13;;;12.10;99.90;;;;;;6367619;23;20011;-64
2023/01/12 10:19:47;;;;;;;4.80;1.65;;;12.30;99.90;;;;;;6358314;23;20065;-63
2023/01/12 10:22:36;;;;;;;1.58;1.45;;;12.60;99.90;;;;;;6354113;23;20501;-65
2023/01/12 10:25:18;;;;;;;4.20;0.93;;;12.60;99.90;;;;;;6383272;23;20000;-64
2023/01/12 10:27:55;;;;;;;3.17;1.27;;;12.70;99.90;;;;;;6359285;23;20084;-65
2023/01/12 10:30:34;;;;;;;1.90;1.60;;;12.50;99.90;;;;;;6358045;23;20045;-65
2023/01/12 10:33:16;;;;;;;3.95;1.00;;;12.50;99.90;;;;;;6357517;23;20181;-63
2023/01/12 10:35:53;;;;;;;1.42;0.82;;;12.90;99.90;;;;;;6354181;23;19997;-64
2023/01/12 10:38:33;;;;;;;2.03;0.85;;;12.90;1.00;;;;;;6368000;23;20001;-64
2023/01/12 10:41:19;;;;;;;1.52;1.23;;;13.20;1.00;;;;;;6358741;23;20205;-64
2023/01/12 10:44:05;;;;;;;3.13;0.90;;;13.70;99.90;;;;;;6357144;23;20000;-65
2023/01/12 10:46:38;;;;;;;3.67;1.27;;;14.00;99.90;;;;;;6359188;23;20249;-62
2023/01/12 10:49:23;;;;;;;2.25;1.02;;;14.40;69.50;;;;;;6358442;23;19994;-63
2023/01/12 10:52:10;;;;;;;3.85;1.50;;;14.70;1.00;;;;;;6325566;23;20379;-63
2023/01/12 10:54:49;;;;;;;3.08;1.20;;;14.60;1.00;;;;;;6357205;23;19995;-66
2023/01/12 10:57:25;;;;;;;4.47;1.40;;;14.10;1.00;;;;;;6381991;23;20282;-63
2023/01/12 11:00:01;;;;;;;1.92;1.10;;;13.90;1.00;;;;;;6359194;23;20040;-64
2023/01/12 11:02:45;;;;;;;2.70;1.27;;;14.00;1.00;;;;;;6359164;23;20473;-65
2023/01/12 11:05:38;;;;;;;3.60;1.35;;;13.60;1.00;;;;;;6346032;23;20352;-64
2023/01/12 11:08:28;;;;;;;2.58;0.98;;;13.70;1.00;;;;;;6364178;23;19994;-63
2023/01/12 11:11:15;;;;;;;2.35;0.90;;;13.20;1.00;;;;;;6358191;23;20276;-64
2023/01/12 11:13:46;;;;;;;3.90;1.10;;;12.70;1.00;;;;;;6357500;23;20007;-64
2023/01/12 11:16:23;;;;;;;2.97;0.98;;;12.70;1.00;;;;;;6356798;23;20547;-65
2023/01/12 11:19:10;;;;;;;1.75;1.00;;;12.80;1.00;;;;;;6353676;23;20427;-63
2023/01/12 11:21:45;;;;;;;1.33;0.90;;;12.70;1.00;;;;;;6349503;23;20004;-64
2023/01/12 11:24:48;;;;;;;4.20;1.27;;;12.30;1.00;;;;;;6359743;23;20045;-65
2023/01/12 11:27:36;;;;;;;1.15;0.93;;;12.30;1.00;;;;;;6381961;23;19997;-65
2023/01/12 11:30:21;;;;;;;1.10;0.82;;;12.70;1.00;;;;;;6333596;23;20049;-64
2023/01/12 11:33:07;;;;;;;2.88;1.00;;;13.30;1.00;;;;;;6359549;23;20053;-63
2023/01/12 11:35:57;;;;;;;6.28;1.65;;;13.70;1.00;;;;;;6353043;23;20005;-64
2023/01/12 11:38:42;;;;;;;1.20;0.98;;;14.10;1.00;;;;;;6352545;23;19994;-64
2023/01/12 11:41:22;;;;;;;3.17;1.25;;;13.90;99.90;;;;;;6367746;23;19998;-65
2023/01/12 11:44:15;;;;;;;1.33;0.93;;;13.90;99.90;;;;;;6359202;23;20044;-65
2023/01/12 11:46:52;;;;;;;5.95;1.38;;;14.10;99.90;;;;;;6360144;23;19998;-66
2023/01/12 11:49:57;;;;;;;3.17;1.60;;;14.30;99.90;;;;;;6366523;23;19994;-64
2023/01/12 11:52:28;;;;;;;3.00;2.75;;;14.50;99.90;;;;;;6277946;23;20180;-66
2023/01/12 11:55:05;;;;;;;;;;;14.00;1.00;;;;;;6360138;23;20037;-64
2023/01/12 11:58:06;;;;;;;3.80;1.23;;;13.90;1.00;;;;;;6381611;23;19904;-67
2023/01/12 12:00:52;;;;;;;1.55;0.93;;;13.70;36.40;;;;;;6381129;23;20008;-64
2023/01/12 12:03:54;;;;;;;1.35;1.17;;;13.30;1.00;;;;;;6331805;23;20001;-63
2023/01/12 12:06:40;;;;;;;2.72;1.30;;;13.70;1.00;;;;;;6196082;23;20016;-64
2023/01/12 12:09:19;;;;;;;2.83;1.30;;;13.90;1.00;;;;;;6201471;23;20325;-63
2023/01/12 12:12:01;;;;;;;2.33;1.10;;;13.60;1.00;;;;;;6205468;23;20323;-62
2023/01/12 12:14:54;;;;;;;3.53;0.77;;;13.20;1.00;;;;;;6227246;23;20003;-66
2023/01/12 12:17:34;;;;;;;1.73;1.20;;;12.90;1.00;;;;;;6227744;23;20307;-64
2023/01/12 12:20:13;;;;;;;2.38;1.00;;;12.80;1.00;;;;;;6199127;23;20000;-64
2023/01/12 12:23:19;;;;;;;2.28;1.30;;;13.10;1.00;;;;;;6227680;23;20002;-63
2023/01/12 12:25:58;;;;;;;2.67;1.17;;;13.40;1.00;;;;;;6202217;23;20217;-62
2023/01/12 12:28:58;;;;;;;1.88;1.27;;;14.10;1.00;;;;;;6206719;23;20051;-66
2023/01/12 12:31:52;;;;;;;3.55;1.10;;;15.00;1.00;;;;;;6217566;23;20003;-66
2023/01/12 12:35:07;;;;;;;1.73;1.00;;;14.70;1.00;;;;;;6204514;23;20002;-64
2023/01/12 12:37:42;;;;;;;;;;;14.70;1.00;;;;;;6205661;23;20010;-63
2023/01/12 12:40:28;;;;;;;2.53;1.00;;;14.20;1.00;;;;;;6207247;23;19908;-63
2023/01/12 12:46:25;;;;;;;1.80;1.13;;;15.40;1.00;;;;;;6206826;23;20002;-65
2023/01/12 12:49:08;;;;;;;2.55;1.23;;;16.50;1.00;;;;;;6216502;23;20229;-63
2023/01/12 12:51:40;;;;;;;4.57;1.33;;;16.20;1.00;;;;;;6228804;23;20276;-66
2023/01/12 12:54:19;;;;;;;1.35;0.70;;;15.90;1.00;;;;;;6228280;23;19998;-65
2023/01/12 12:56:56;;;;;;;2.05;0.80;;;15.30;1.00;;;;;;6205460;23;20010;-64
2023/01/12 12:59:30;;;;;;;0.95;0.85;;;15.10;1.00;;;;;;6204845;23;20272;-63
2023/01/12 13:02:03;;;;;;;1.30;1.20;;;15.10;1.00;;;;;;6201134;23;20217;-63
2023/01/12 13:04:45;;;;;;;2.75;1.08;;;15.60;1.00;;;;;;6220852;23;20013;-66
2023/01/12 13:07:25;;;;;;;;;;;15.80;1.00;;;;;;6356170;23;19996;-66
2023/01/12 13:10:25;;;;;;;1.85;1.10;;;15.80;1.00;;;;;;6383624;23;20390;-65
2023/01/12 13:13:00;;;;;;;1.00;0.90;;;15.60;99.90;;;;;;6382786;23;20097;-62
2023/01/12 13:15:35;;;;;;;1.45;1.20;;;15.80;99.90;;;;;;6357938;23;20004;-63
2023/01/12 13:18:47;;;;;;;4.20;1.55;;;15.40;99.90;;;;;;6334864;23;20265;-63
2023/01/12 13:21:57;;;;;;;3.50;1.10;;;15.20;99.90;;;;;;6356385;23;20117;-64
2023/01/12 13:24:41;;;;;;;1.40;1.00;;;15.30;99.90;;;;;;6359724;23;19986;-66
2023/01/12 13:27:50;;;;;;;1.80;1.00;;;15.30;99.90;;;;;;6357403;23;19997;-64
2023/01/12 13:30:30;;;;;;;2.10;0.88;;;15.00;99.90;;;;;;6360645;23;20053;-63
2023/01/12 13:33:14;;;;;;;1.60;0.93;;;14.10;99.90;;;;;;6356947;23;19993;-67
2023/01/12 13:35:45;;;;;;;1.70;0.95;;;13.50;99.90;;;;;;6354384;23;20304;-63
2023/01/12 13:38:47;;;;;;;0.90;0.90;;;13.40;99.90;;;;;;6359114;23;20338;-65
2023/01/12 13:44:44;;;;;;;1.63;0.95;;;13.10;99.90;;;;;;6357952;23;20001;-65
2023/01/12 13:47:24;;;;;;;1.13;0.80;;;13.10;99.90;;;;;;6333808;23;19997;-64
2023/01/12 13:50:00;;;;;;;1.30;1.20;;;13.20;99.90;;;;;;6360595;23;20118;-64
2023/01/12 13:52:36;;;;;;;2.47;1.05;;;13.20;99.90;;;;;;6360120;23;20049;-65
2023/01/12 13:55:21;;;;;;;1.88;1.05;;;12.90;99.90;;;;;;6358832;23;20006;-64
2023/01/12 13:58:03;;;;;;;1.90;1.00;;;12.80;1.00;;;;;;6357184;23;20013;-64
2023/01/12 14:00:38;;;;;;;0.85;0.85;;;12.60;1.00;;;;;;6359077;23;20024;-63
2023/01/12 14:03:17;;;;;;;;;;;12.50;1.00;;;;;;6360846;23;20351;-64
2023/01/12 14:06:39;;;;;;;1.25;1.00;;;12.40;1.00;;;;;;6268267;23;20253;-65
2023/01/12 14:09:22;;;;;;;4.13;1.70;;;12.40;1.00;;;;;;6295862;23;20028;-64
2023/01/12 14:12:22;;;;;;;1.75;0.85;;;12.20;1.00;;;;;;6296152;23;20000;-63
2023/01/12 14:18:46;;;;;;;2.08;1.40;;;12.00;1.00;;;;;;6293782;23;19998;-64
2023/01/12 14:21:30;;;;;;;2.45;1.58;;;11.80;1.00;;;;;;6268972;23;20350;-65
2023/01/12 14:24:16;;;;;;;1.55;1.42;;;11.60;1.00;;;;;;6294358;23;20001;-65
2023/01/12 14:26:50;;;;;;;1.80;1.17;;;11.60;1.00;;;;;;6294585;23;20009;-65
2023/01/12 14:29:24;;;;;;;1.53;1.20;;;11.60;1.00;;;;;;6294419;23;20286;-64
2023/01/12 14:31:56;;;;;;;3.42;1.90;;;11.50;1.00;;;;;;6294475;23;19995;-65
2023/01/12 14:34:34;;;;;;;2.95;1.25;;;11.30;1.00;;;;;;6245356;23;20006;-64
2023/01/12 14:37:30;;;;;;;2.85;1.45;;;11.30;1.00;;;;;;6291105;23;20013;-64
2023/01/12 14:40:01;;;;;;;4.78;1.48;;;11.30;1.00;;;;;;6294921;23;20006;-64
2023/01/12 14:48:19;;;;;;;4.65;1.65;;;11.20;1.00;;;;;;6202802;23;20288;-65
2023/01/12 14:50:59;;;;;;;1.65;1.48;;;11.20;1.00;;;;;;6175915;23;19992;-64
2023/01/12 14:53:41;;;;;;;4.35;1.60;;;11.20;1.00;;;;;;6213582;23;19996;-64